Grandeur Of The Seas — C6SE3 — position and weather

sailwx.info

Track history (hours):
 
Tides and Currents Weather Stations Pressure Air Temp Water Temp Dewpoint Dewpoint Depression Visibility Wind Speed Wind Dir Waves Ship Positions

Grandeur Of The Seas

Operator: Royal Caribbean Cruises Ltd

Last reported at 2017-Jan-19 03:16 UTC. Time now 2017-Jan-20 03:54 UTC.
Position N 25°59' W 079°42'.

Type: Passenger vessel. MMSI: 311315000.

Date/timePositionNaut miles runAvg speedWind from/ knotsBaromVisibWave heightAir tempDewpointWater temp
2017-Jan-19 03:16N 25°59' W 079°42'1115.7
2017-Jan-19 02:34N 25°53' W 079°52'1515.1
2017-Jan-19 01:33N 25°45' W 080°07'4 3.5
2017-Jan-19 00:31N 25°47' W 080°11'0 0.0
2017-Jan-18 23:31N 25°47' W 080°11'0 0.0
2017-Jan-18 22:31N 25°47' W 080°11'0 0.0
2017-Jan-18 21:31N 25°47' W 080°11'0 0.0
2017-Jan-18 20:28N 25°47' W 080°11'0 0.0
2017-Jan-18 19:31N 25°47' W 080°11'0 0.0
2017-Jan-18 18:31N 25°47' W 080°11'0 0.0
2017-Jan-18 17:31N 25°47' W 080°11'0 0.0
2017-Jan-18 16:31N 25°47' W 080°11'1 1.1
2017-Jan-18 15:34N 25°46' W 080°10'1211.8
2017-Jan-18 14:33N 25°49' W 079°57'1515.0
2017-Jan-18 13:33N 26°03' W 079°49'1616.2
2017-Jan-18 12:33N 26°19' W 079°48'3415.9
2017-Jan-18 10:25N 26°53' W 079°46'1315.3
2017-Jan-18 09:33N 27°05' W 079°50'  
2017-Jan-15 07:33N 36°53' W 075°54'6715.2
2017-Jan-15 03:10N 37°58' W 076°12'5018.7
2017-Jan-15 00:31N 38°47' W 076°25'1717.4
2017-Jan-14 23:33N 39°03' W 076°23'1212.3
2017-Jan-14 22:33N 39°14' W 076°32'4 3.5
2017-Jan-14 21:32N 39°16' W 076°36'0 0.0
2017-Jan-14 20:32N 39°16' W 076°36'0 0.0
2017-Jan-14 19:32N 39°16' W 076°36'0 0.0
2017-Jan-14 18:32N 39°16' W 076°36'0 0.0
2017-Jan-14 17:32N 39°16' W 076°36'0 0.0
2017-Jan-14 16:32N 39°16' W 076°36'0 0.0
2017-Jan-14 15:32N 39°16' W 076°36'0 0.0
2017-Jan-14 14:32N 39°16' W 076°36'0 0.0
2017-Jan-14 13:32N 39°16' W 076°36'0 0.0
2017-Jan-14 12:32N 39°16' W 076°36'1 0.7
2017-Jan-14 11:33N 39°15' W 076°35'9 9.3
2017-Jan-14 10:33N 39°10' W 076°26'1313.0
2017-Jan-14 09:34N 38°57' W 076°23'  
2017-Jan-10 19:31N 18°07' W 063°14'12 2.1
2017-Jan-10 13:33N 18°01' W 063°03'0 0.0
2017-Jan-10 12:06N 18°01' W 063°03'1 2.5
2017-Jan-10 11:33N 18°00' W 063°04'1413.4
2017-Jan-10 10:32N 17°47' W 063°01'5918.7
2017-Jan-10 07:25N 16°53' W 062°39'1618.6
2017-Jan-10 06:33N 16°39' W 062°31'1918.5
2017-Jan-10 05:33N 16°22' W 062°22'  
Track history (hours):
 
Tides and Currents Weather Stations Pressure Air Temp Water Temp Dewpoint Dewpoint Depression Visibility Wind Speed Wind Dir Waves Ship Positions

Grandeur Of The Seas

Operator: Royal Caribbean Cruises Ltd

Last reported at 2017-Jan-19 03:16 UTC. Time now 2017-Jan-20 03:54 UTC.
Position N 25°59' W 079°42'.

Type: Passenger vessel. MMSI: 311315000.

Date/timePositionNaut miles runAvg speedWind from/ knotsBaromVisibWave heightAir tempDewpointWater temp
2017-Jan-19 03:16N 25°59' W 079°42'1115.7
2017-Jan-19 02:34N 25°53' W 079°52'1515.1
2017-Jan-19 01:33N 25°45' W 080°07'4 3.5
2017-Jan-19 00:31N 25°47' W 080°11'0 0.0
2017-Jan-18 23:31N 25°47' W 080°11'0 0.0
2017-Jan-18 22:31N 25°47' W 080°11'0 0.0
2017-Jan-18 21:31N 25°47' W 080°11'0 0.0
2017-Jan-18 20:28N 25°47' W 080°11'0 0.0
2017-Jan-18 19:31N 25°47' W 080°11'0 0.0
2017-Jan-18 18:31N 25°47' W 080°11'0 0.0
2017-Jan-18 17:31N 25°47' W 080°11'0 0.0
2017-Jan-18 16:31N 25°47' W 080°11'1 1.1
2017-Jan-18 15:34N 25°46' W 080°10'1211.8
2017-Jan-18 14:33N 25°49' W 079°57'1515.0
2017-Jan-18 13:33N 26°03' W 079°49'1616.2
2017-Jan-18 12:33N 26°19' W 079°48'3415.9
2017-Jan-18 10:25N 26°53' W 079°46'1315.3
2017-Jan-18 09:33N 27°05' W 079°50'  
2017-Jan-15 07:33N 36°53' W 075°54'6715.2
2017-Jan-15 03:10N 37°58' W 076°12'5018.7
2017-Jan-15 00:31N 38°47' W 076°25'1717.4
2017-Jan-14 23:33N 39°03' W 076°23'1212.3
2017-Jan-14 22:33N 39°14' W 076°32'4 3.5
2017-Jan-14 21:32N 39°16' W 076°36'0 0.0
2017-Jan-14 20:32N 39°16' W 076°36'0 0.0
2017-Jan-14 19:32N 39°16' W 076°36'0 0.0
2017-Jan-14 18:32N 39°16' W 076°36'0 0.0
2017-Jan-14 17:32N 39°16' W 076°36'0 0.0
2017-Jan-14 16:32N 39°16' W 076°36'0 0.0
2017-Jan-14 15:32N 39°16' W 076°36'0 0.0
2017-Jan-14 14:32N 39°16' W 076°36'0 0.0
2017-Jan-14 13:32N 39°16' W 076°36'0 0.0
2017-Jan-14 12:32N 39°16' W 076°36'1 0.7
2017-Jan-14 11:33N 39°15' W 076°35'9 9.3
2017-Jan-14 10:33N 39°10' W 076°26'1313.0
2017-Jan-14 09:34N 38°57' W 076°23'  
2017-Jan-10 19:31N 18°07' W 063°14'12 2.1
2017-Jan-10 13:33N 18°01' W 063°03'0 0.0
2017-Jan-10 12:06N 18°01' W 063°03'1 2.5
2017-Jan-10 11:33N 18°00' W 063°04'1413.4
2017-Jan-10 10:32N 17°47' W 063°01'5918.7
2017-Jan-10 07:25N 16°53' W 062°39'1618.6
2017-Jan-10 06:33N 16°39' W 062°31'1918.5
2017-Jan-10 05:33N 16°22' W 062°22'  

Dump ship's entire track history